Aérodrome :
LOGIN :

S'inscrire | Disclaimer

   EN    FR    IT 

 










Légende :    VFR   VFR Marginal   IFR   IFR Intensif   IFR Très Intensif
Visi : 
Plafond : 
>= 8 km
>= 3000ft
5 à 8 km
1000 à 3000 ft
1500m à 5 km
500 à 1000 ft
800 à 1500m
200 à 500 ft
< 800m
< 200 ft
Symboles :   Orages  Brouillard  Fortes neiges  Fortes précipitations  Vent > 20 kt
SIGMETs :   Divers  Orages  Givrage  Turbulence  Onde Orograph.  Cendres Volcan.






- Altitude de l'aérodrome : 325 ft
- Code IATA : BES


LFRB - Brest

DERNIER METAR :
  • 220030Z AUTO 22019KT 9999 OVC014 09/07 Q1027 TEMPO BKN015

METARs EXPIRÉS :
  • 212300Z AUTO 21018KT 9999 OVC015 09/07 Q1027 BECMG 23016G27KT BKN010
  • 212230Z AUTO 22017KT 9999 OVC017 09/07 Q1028 BECMG 23016G27KT BKN010

TAF TAF LFRB
Valide du 21 à 18h jusqu'au 23 à 00h UTC


211700Z 2118/2224 23016G27KT 9999 BKN020
BECMG 2121/2124 BKN010
BECMG 2203/2206 OVC005
TEMPO 2212/2224 3000 -DZ OVC003
PROB30
TEMPO 2218/2224 0800 -RADZ FG VV///
ATIS : +33 2 98 32 02 71



MET'MAP, la Météo Aéronautique d'un coup d'oeil ! - Copyright ORBIFLY Décembre 2007 - Disclaimer

ORBIFLY MET'MAP TEAM :

Programmation & Développement : Alexandra Zaïnal
Sur une idée originale de : Baudouin d'Aumeries
Assistance à la programmation : Marc-Olivier Méhu
Soutien technique & logistique : Manuel Goepfert

Contact : metmap@orbifly.com




SOURCES & CREDITS :

   NOAA